• Join FlightAware (Why Join?)
  • Login
  • US Flag 
12:24AM EDT


 

Airport Tracker/Info


-or-


 

Live Flight TrackerFlight Track Log ✈ ASQ4976 ✈ 09-May-2013 ✈ KATL - KALB

Flight Track Log - Related Links

Times and Time Zones

All times are in EDT time to prevent confusion due to time zone crossing. See the ASQ4976 flight status page for this flight to view local times or setup timezone preferences in your user account.

Time Position Orientation Groundspeed Altitude Reporting Facility
EDT Latitude Longitude Course Direction KTS MPH feet Rate Location/Type
09:52AM 33.6500 -84.4833 301° West 176 203 2,800  Level Atlanta TRACON
09:53AM 33.6833 -84.5500 301° West 253 291 4,500 2,160 Climbing Atlanta TRACON
09:54AM 33.7500 -84.5833 337° Northwest 276 318 7,200 1,920 Climbing Atlanta TRACON
09:56AM 33.8933 -84.5419 13° North 294 338 10,300 1,860 Climbing Atlanta Center
09:57AM 33.9833 -84.4672 35° Northeast 328 377 12,900 2,040 Climbing Atlanta Center
09:58AM 34.0756 -84.4175 24° Northeast 350 403 14,400 1,980 Climbing Atlanta Center
09:59AM 34.1675 -84.3550 29° Northeast 359 413 16,900 2,040 Climbing Atlanta Center
10:00AM 34.2636 -84.2978 26° Northeast 370 426 18,500 1,680 Climbing Atlanta Center
10:01AM 34.3658 -84.2653 15° North 375 432 20,300 1,680 Climbing Atlanta Center
10:02AM 34.4725 -84.2403 11° North 384 442 21,900 1,380 Climbing Atlanta Center
10:03AM 34.5706 -84.2178 11° North 395 455 23,100 1,380 Climbing Atlanta Center
10:04AM 34.6853 -84.1903 11° North 395 455 24,700 1,500 Climbing Atlanta Center
10:05AM 34.7981 -84.1628 11° North 389 448 26,100 1,200 Climbing Atlanta Center
10:06AM 34.9128 -84.1375 10° North 399 459 27,100 960 Climbing Atlanta Center
10:07AM 35.0297 -84.1097 11° North 409 471 28,100 960 Climbing Atlanta Center
10:08AM 35.1444 -84.0819 11° North 420 483 29,100 1,080 Climbing Atlanta Center
10:09AM 35.2614 -84.0514 12° North 420 483 30,300 1,200 Climbing Atlanta Center
10:10AM 35.3761 -84.0233 11° North 420 483 31,500 1,200 Climbing Atlanta Center
10:11AM 35.4825 -83.9953 12° North 426 490 32,700 720 Climbing Atlanta Center
10:12AM 35.5847 -83.9264 29° Northeast 416 479 33,000 600 Climbing Atlanta Center
10:13AM 35.6889 -83.8522 30° Northeast 416 479 33,900 480 Climbing Atlanta Center
10:14AM 35.7931 -83.7750 31° Northeast 426 490 34,000 540 Climbing Atlanta Center
10:15AM 35.8950 -83.6953 32° Northeast 432 497 35,000 960 Climbing Atlanta Center
10:16AM 35.9969 -83.6203 31° Northeast 426 490 36,000 960 Climbing Atlanta Center
10:17AM 36.1053 -83.5375 32° Northeast 421 484 37,000 480 Climbing Atlanta Center
10:18AM 36.1925 -83.4703 32° Northeast 416 479 37,000  Level Atlanta Center
10:20AM 36.4203 -83.2950 32° Northeast 417 480 37,000  Level Indianapolis Center
10:21AM 36.5183 -83.2206 31° Northeast 414 476 37,000  Level Indianapolis Center
10:22AM 36.6167 -83.1458 31° Northeast 414 476 37,000  Level Indianapolis Center
10:23AM 36.7131 -83.0700 32° Northeast 411 473 37,000  Level Indianapolis Center
10:24AM 36.8092 -82.9958 32° Northeast 407 468 37,000  Level Indianapolis Center
10:25AM 36.9181 -82.9158 30° Northeast 413 475 37,000  Level Indianapolis Center
10:26AM 37.0106 -82.8394 33° Northeast 412 474 37,000  Level Indianapolis Center
10:27AM 37.1058 -82.7653 32° Northeast 403 464 37,000  Level Indianapolis Center
10:28AM 37.2172 -82.6775 32° Northeast 404 465 37,000  Level Indianapolis Center
10:29AM 37.3119 -82.6033 32° Northeast 402 463 37,000  Level Indianapolis Center
10:30AM 37.4075 -82.5292 32° Northeast 403 464 37,000  Level Indianapolis Center
10:31AM 37.5017 -82.4547 32° Northeast 399 459 37,000  Level Indianapolis Center
10:32AM 37.5958 -82.3794 32° Northeast 399 459 37,000  Level Indianapolis Center
10:33AM 37.7069 -82.2906 32° Northeast 403 464 37,000  Level Indianapolis Center
10:34AM 37.8014 -82.2147 32° Northeast 403 464 37,000  Level Indianapolis Center
10:35AM 37.8939 -82.1411 32° Northeast 410 472 37,000  Level Indianapolis Center
10:36AM 37.9914 -82.0633 32° Northeast 414 476 37,000  Level Indianapolis Center
10:37AM 38.0889 -81.9847 32° Northeast 415 478 37,000  Level Indianapolis Center
10:39AM 38.2078 -81.8875 33° Northeast 422 486 37,000  Level Indianapolis Center
10:40AM 38.3064 -81.8069 33° Northeast 423 487 37,000  Level Indianapolis Center
10:41AM 38.3961 -81.7039 42° Northeast 441 507 37,000  Level Indianapolis Center
10:42AM 38.4781 -81.5883 48° Northeast 444 511 37,000  Level Indianapolis Center
10:43AM 38.5589 -81.4717 48° Northeast 445 512 37,000  Level Indianapolis Center
10:44AM 38.6556 -81.3333 48° Northeast 445 512 37,000  Level Indianapolis Center
10:45AM 38.7364 -81.2169 48° Northeast 444 511 37,000  Level Indianapolis Center
10:46AM 38.8186 -81.0992 48° Northeast 445 512 37,000  Level Indianapolis Center
10:47AM 38.9011 -80.9794 48° Northeast 449 517 37,000  Level Indianapolis Center
10:48AM 38.9839 -80.8592 48° Northeast 452 520 37,000  Level Indianapolis Center
10:49AM 39.0672 -80.7403 48° Northeast 449 517 37,000  Level Indianapolis Center
10:50AM 39.1683 -80.5989 47° Northeast 447 514 37,000  Level Indianapolis Center
10:51AM 39.2525 -80.4808 47° Northeast 446 513 37,000  Level Indianapolis Center
10:52AM 39.3358 -80.3642 47° Northeast 443 510 37,000  Level Indianapolis Center
10:52AM 39.3831 -80.3064 43° Northeast 438 504 37,000  Level Cleveland Center
10:53AM 39.4642 -80.1878 48° Northeast 438 504 37,000  Level Cleveland Center
10:54AM 39.5469 -80.0717 47° Northeast 438 504 37,000  Level Cleveland Center
10:55AM 39.6297 -79.9497 49° Northeast 438 504 37,000  Level Cleveland Center
10:56AM 39.7125 -79.8275 49° Northeast 438 504 37,000  Level Cleveland Center
10:57AM 39.7928 -79.7078 49° Northeast 438 504 37,000  Level Cleveland Center
10:58AM 39.8753 -79.5875 48° Northeast 438 504 37,000  Level Cleveland Center
10:59AM 39.9656 -79.4508 49° Northeast 443 510 37,000  Level Cleveland Center
11:00AM 40.0478 -79.3300 48° Northeast 438 504 37,000  Level Cleveland Center
11:01AM 40.1278 -79.2064 50° Northeast 438 504 37,000  Level Cleveland Center
11:02AM 40.2075 -79.0853 49° Northeast 438 504 37,000  Level Cleveland Center
11:03AM 40.2911 -78.9608 49° Northeast 438 504 37,000  Level Cleveland Center
11:04AM 40.3708 -78.8389 49° Northeast 438 504 37,000  Level Cleveland Center
11:05AM 40.4522 -78.7142 49° Northeast 438 504 37,000  Level Cleveland Center
11:07AM 40.6042 -78.4775 50° Northeast 453 521 37,000  Level New York Center
11:08AM 40.6872 -78.3528 49° Northeast 453 521 37,000  Level New York Center
11:09AM 40.7664 -78.2244 51° Northeast 453 521 37,000  Level New York Center
11:10AM 40.8492 -78.0989 49° Northeast 447 514 37,000  Level New York Center
11:11AM 40.9297 -77.9731 50° Northeast 447 514 37,000  Level New York Center
11:12AM 41.0144 -77.8500 48° Northeast 452 520 37,000  Level New York Center
11:13AM 41.0989 -77.7264 48° Northeast 457 526 37,000 -360 Level New York Center
11:14AM 41.1853 -77.6031 47° Northeast 457 526 36,300 -1,020 Descending New York Center
11:15AM 41.2694 -77.4789 48° Northeast 457 526 35,000 -1,740 Descending New York Center
11:16AM 41.3533 -77.3544 48° Northeast 457 526 32,900 -2,040 Descending New York Center
11:17AM 41.4328 -77.2350 48° Northeast 451 519 30,900 -1,920 Descending New York Center
11:18AM 41.5100 -77.1178 49° Northeast 437 503 29,100 -960 Descending New York Center
11:19AM 41.5936 -76.9953 48° Northeast 437 503 29,000 -60 Descending New York Center
11:20AM 41.6681 -76.8856 48° Northeast 447 514 29,000 -360 Level New York Center
11:21AM 41.7517 -76.7597 48° Northeast 442 509 28,400 -660 Descending New York Center
11:22AM 41.8303 -76.6417 48° Northeast 442 509 27,700 -840 Descending New York Center
11:25AM 42.0003 -76.3853 48° Northeast 448 516 25,800 -960 Descending Boston Center
11:26AM 42.0775 -76.2642 49° Northeast 437 503 24,800 -900 Descending Boston Center
11:27AM 42.1567 -76.1400 49° Northeast 437 503 24,000 -420 Descending Boston Center
11:28AM 42.2114 -75.9919 63° Northeast 437 503 24,000  Level Boston Center
11:29AM 42.2617 -75.8433 65° Northeast 432 497 24,000  Level Boston Center
11:30AM 42.3189 -75.6750 65° Northeast 432 497 24,000  Level Boston Center
11:31AM 42.3647 -75.5228 68° East 432 497 24,000  Level Boston Center
11:32AM 42.4025 -75.3586 73° East 437 503 24,000 -780 Level Boston Center
11:33AM 42.4419 -75.2031 71° East 442 509 22,500 -1,980 Descending Boston Center
11:34AM 42.4953 -75.0589 63° Northeast 437 503 20,100 -2,400 Descending Boston Center
11:35AM 42.5258 -74.9081 75° East 424 488 17,700 -2,460 Descending Boston Center
11:35AM 42.5444 -74.8100 76° East 402 463 16,000 -2,340 Descending Boston Center
11:36AM 42.5514 -74.7767 74° East 411 473 15,400 -2,520 Descending Boston Center
11:36AM 42.5650 -74.7208 72° East 396 456 14,500 -2,640 Descending Boston Center
11:37AM 42.5836 -74.6228 76° East 396 456 12,800 -2,400 Descending Boston Center
11:37AM 42.5928 -74.5836 72° East 383 441 12,100 -2,100 Descending Boston Center
11:38AM 42.6192 -74.5025 66° East 375 432 10,700 -1,800 Descending Boston Center
11:38AM 42.6408 -74.4611 55° Northeast 351 404 10,300 -840 Descending Boston Center
11:39AM 42.6775 -74.3917 54° Northeast 338 389 9,900 -900 Descending Boston Center
11:39AM 42.6925 -74.3694 47° Northeast 292 336 9,400 -1,440 Descending Boston Center
11:40AM 42.7206 -74.3139 55° Northeast 300 345 8,500 -1,620 Descending Boston Center
11:40AM 42.7378 -74.2803 55° Northeast 279 321 7,800 -1,740 Descending Boston Center
11:41AM 42.7700 -74.2164 55° Northeast 283 326 6,800 -1,500 Descending Boston Center
11:41AM 42.7828 -74.1942 52° Northeast 274 315 6,300 -1,500 Descending Boston Center
11:42AM 42.8086 -74.1439 55° Northeast 278 320 5,300 -1,620 Descending Boston Center
11:42AM 42.8258 -74.1103 55° Northeast 265 305 4,700 -1,440 Descending Boston Center
11:43AM 42.8514 -74.0658 52° Northeast 272 313 3,900 -1,440 Descending Boston Center
11:43AM 42.8708 -74.0264 56° Northeast 265 305 3,300 -1,140 Descending Boston Center
11:44AM 42.8839 -73.9731 72° East 257 296 2,800 -840 Descending Boston Center
11:44AM 42.8886 -73.9306 81° East 255 293 2,500 -540 Descending Boston Center
11:45AM 42.8894 -73.8739 89° East 244 281 2,300 -540 Descending Boston Center
11:45AM 42.8942 -73.8372 80° East 237 273 2,000 -300 Descending Boston Center
11:46AM 42.8653 -73.8111 146° Southeast 193 222 2,000  Level Boston Center
11:46AM 42.8422 -73.8106 179° South 175 201 2,000  Level Boston Center
11:47AM 42.8533 -73.7486 76° East 193 222 2,000 -840 Level Boston Center
11:47AM 42.8006 -73.8097 220° Southwest 133 153 1,200 -1,080 Descending Boston Center
11:48AM 42.7631 -73.8089 179° South 134 154 400 -840 Descending Boston Center